createdAt,value
2023-03-30T00:00:23.422Z,9.50
2023-03-30T00:02:53.927Z,9.13
2023-03-30T00:05:23.951Z,9.23
2023-03-30T00:07:51.174Z,9.02
2023-03-30T00:10:19.342Z,9.70
2023-03-30T00:12:47.780Z,9.23
2023-03-30T00:15:16.732Z,9.23
2023-03-30T00:17:43.787Z,9.68
2023-03-30T00:20:12.257Z,9.93
2023-03-30T00:22:43.792Z,9.00
2023-03-30T00:25:13.858Z,9.38
2023-03-30T00:27:41.848Z,9.48
2023-03-30T00:30:11.796Z,8.70
2023-03-30T00:32:38.723Z,8.73
2023-03-30T00:35:06.293Z,8.45
2023-03-30T00:37:33.534Z,8.00
2023-03-30T00:40:00.473Z,8.60
2023-03-30T00:42:27.280Z,9.05
2023-03-30T00:45:12.803Z,8.63
2023-03-30T00:47:46.535Z,8.20
2023-03-30T00:50:14.124Z,8.90
2023-03-30T00:52:43.389Z,7.97
2023-03-30T00:55:11.805Z,8.25
2023-03-30T00:57:41.667Z,8.75
2023-03-30T01:00:11.655Z,9.10
2023-03-30T01:02:46.259Z,8.48
2023-03-30T01:05:13.415Z,9.25
2023-03-30T01:07:42.142Z,8.45
2023-03-30T01:10:12.119Z,8.40
2023-03-30T01:12:39.793Z,8.20
2023-03-30T01:15:10.509Z,7.57
2023-03-30T01:17:58.128Z,7.15
2023-03-30T01:20:28.527Z,7.57
2023-03-30T01:23:30.153Z,7.97
2023-03-30T01:26:41.650Z,7.88
2023-03-30T01:29:46.976Z,7.63
2023-03-30T01:32:30.371Z,7.50
2023-03-30T01:35:26.736Z,8.10
2023-03-30T01:38:17.385Z,8.05
2023-03-30T01:40:54.968Z,7.75
2023-03-30T01:43:35.527Z,7.65
2023-03-30T01:46:25.291Z,7.22
2023-03-30T01:49:40.790Z,7.85
2023-03-30T01:52:31.920Z,7.80
2023-03-30T01:55:09.495Z,8.18
2023-03-30T01:57:47.881Z,7.13
2023-03-30T02:00:19.128Z,7.82
2023-03-30T02:03:09.032Z,7.60
2023-03-30T02:05:37.209Z,7.57
2023-03-30T02:08:14.445Z,7.40
2023-03-30T02:10:43.813Z,7.78
2023-03-30T02:13:12.023Z,7.80
2023-03-30T02:15:53.088Z,8.45
2023-03-30T02:18:20.415Z,7.10
2023-03-30T02:23:17.471Z,7.85
2023-03-30T02:25:44.878Z,8.32
2023-03-30T02:28:11.759Z,7.82
2023-03-30T02:30:44.029Z,7.68
2023-03-30T02:33:33.475Z,7.88
2023-03-30T02:36:09.993Z,7.95
2023-03-30T02:39:14.646Z,7.47
2023-03-30T02:42:13.680Z,7.55
2023-03-30T02:44:53.644Z,7.82
2023-03-30T02:47:23.671Z,6.78
2023-03-30T02:50:09.543Z,7.53
2023-03-30T02:53:04.350Z,7.60
2023-03-30T02:55:39.830Z,7.03
2023-03-30T02:58:33.221Z,7.63
2023-03-30T03:01:16.336Z,6.65
2023-03-30T03:04:01.994Z,7.28
2023-03-30T03:06:34.940Z,6.57
2023-03-30T03:09:02.033Z,6.30
2023-03-30T03:11:32.218Z,6.82
2023-03-30T03:14:00.506Z,7.75
2023-03-30T03:16:29.959Z,6.95
2023-03-30T03:19:17.222Z,6.82
2023-03-30T03:21:47.635Z,7.53
2023-03-30T03:24:17.476Z,6.32
2023-03-30T03:27:16.777Z,6.47
2023-03-30T03:30:03.268Z,7.05
2023-03-30T03:32:35.704Z,6.80
2023-03-30T03:35:02.642Z,6.47
2023-03-30T03:37:31.261Z,7.15
2023-03-30T03:39:58.192Z,6.30
2023-03-30T03:42:25.956Z,6.13
2023-03-30T03:45:02.928Z,6.95
2023-03-30T03:47:31.408Z,6.80
2023-03-30T03:49:58.910Z,6.18
2023-03-30T03:52:25.964Z,6.90
2023-03-30T03:54:52.761Z,7.72
2023-03-30T03:57:19.951Z,7.03
2023-03-30T03:59:47.256Z,7.10
2023-03-30T04:02:14.272Z,6.45
2023-03-30T04:04:41.639Z,7.25
2023-03-30T04:07:10.795Z,6.88
2023-03-30T04:09:37.776Z,7.03
2023-03-30T04:12:18.426Z,7.00
2023-03-30T04:15:03.972Z,6.85
2023-03-30T04:17:50.548Z,6.82
2023-03-30T04:20:30.202Z,6.75
2023-03-30T04:23:10.349Z,6.93
2023-03-30T04:26:01.739Z,6.43
2023-03-30T04:28:57.730Z,6.35
2023-03-30T04:32:04.131Z,6.65
2023-03-30T04:34:54.862Z,7.03
2023-03-30T04:37:42.381Z,6.13
2023-03-30T04:40:38.876Z,6.75
2023-03-30T04:43:15.137Z,7.10
2023-03-30T04:45:42.294Z,6.82
2023-03-30T04:48:41.270Z,6.95
2023-03-30T04:51:31.744Z,6.65
2023-03-30T04:54:17.567Z,6.80
2023-03-30T04:57:19.666Z,6.78
2023-03-30T05:00:09.368Z,7.22
2023-03-30T05:02:36.697Z,6.93
2023-03-30T05:05:26.651Z,6.95
2023-03-30T05:08:19.644Z,6.35
2023-03-30T05:11:06.830Z,6.40
2023-03-30T05:13:59.663Z,6.90
2023-03-30T05:16:27.157Z,6.50
2023-03-30T05:19:29.510Z,6.97
2023-03-30T05:22:17.116Z,7.50
2023-03-30T05:25:10.123Z,6.88
2023-03-30T05:27:54.630Z,7.38
2023-03-30T05:30:38.112Z,7.30
2023-03-30T05:33:38.107Z,7.50
2023-03-30T05:36:30.754Z,6.82
2023-03-30T05:39:16.607Z,6.88
2023-03-30T05:41:59.107Z,6.55
2023-03-30T05:44:39.428Z,7.35
2023-03-30T05:47:25.212Z,7.32
2023-03-30T05:50:09.530Z,7.13
2023-03-30T05:53:12.068Z,7.28
2023-03-30T05:55:59.813Z,7.50
2023-03-30T05:58:53.020Z,7.25
2023-03-30T06:01:38.757Z,7.35
2023-03-30T06:04:06.220Z,6.75
2023-03-30T06:06:35.133Z,6.40
2023-03-30T06:09:04.482Z,6.85
2023-03-30T06:11:34.234Z,7.50
2023-03-30T06:14:17.410Z,7.30
2023-03-30T06:16:57.370Z,6.93
2023-03-30T06:19:27.094Z,7.35
2023-03-30T06:21:54.551Z,6.88
2023-03-30T06:26:56.046Z,6.25
2023-03-30T06:29:23.274Z,7.70
2023-03-30T06:31:51.420Z,7.03
2023-03-30T06:34:38.475Z,6.43
2023-03-30T06:37:08.537Z,7.22
2023-03-30T06:39:37.898Z,6.35
2023-03-30T06:42:06.698Z,5.75
2023-03-30T06:44:50.659Z,6.13
2023-03-30T06:47:20.108Z,7.20
2023-03-30T06:50:03.164Z,6.50
2023-03-30T06:52:49.133Z,7.03
2023-03-30T06:55:17.093Z,7.80
2023-03-30T06:57:45.170Z,6.63
2023-03-30T07:00:13.637Z,6.68
2023-03-30T07:03:00.337Z,7.88
2023-03-30T07:05:33.500Z,7.07
2023-03-30T07:08:20.331Z,7.35
2023-03-30T07:13:22.354Z,6.88
2023-03-30T07:15:52.536Z,6.35
2023-03-30T07:18:19.986Z,6.55
2023-03-30T07:20:46.952Z,6.95
2023-03-30T07:23:20.080Z,6.85
2023-03-30T07:25:48.349Z,6.93
2023-03-30T07:28:20.576Z,7.05
2023-03-30T07:30:47.903Z,7.00
2023-03-30T07:33:19.006Z,7.63
2023-03-30T07:35:47.870Z,7.20
2023-03-30T07:38:20.362Z,7.03
2023-03-30T07:40:51.666Z,6.40
2023-03-30T07:43:20.346Z,7.50
2023-03-30T07:45:47.613Z,7.65
2023-03-30T07:48:21.912Z,7.03
2023-03-30T07:50:49.117Z,7.65
2023-03-30T07:53:16.223Z,7.38
2023-03-30T07:55:45.250Z,6.88
2023-03-30T07:58:21.217Z,7.55
2023-03-30T08:00:48.766Z,7.07
2023-03-30T08:03:39.394Z,7.00
2023-03-30T08:06:06.688Z,7.63
2023-03-30T08:08:41.114Z,7.00
2023-03-30T08:11:11.581Z,7.10
2023-03-30T08:13:41.274Z,6.80
2023-03-30T08:16:09.218Z,6.78
2023-03-30T08:18:37.235Z,7.85
2023-03-30T08:21:05.222Z,7.20
2023-03-30T08:23:32.289Z,6.85
2023-03-30T08:25:59.983Z,7.60
2023-03-30T08:28:27.133Z,7.40
2023-03-30T08:30:54.845Z,7.22
2023-03-30T08:33:24.231Z,6.90
2023-03-30T08:35:51.547Z,7.03
2023-03-30T08:38:19.183Z,7.80
2023-03-30T08:40:47.741Z,7.65
2023-03-30T08:43:35.203Z,6.70
2023-03-30T08:46:03.354Z,7.40
2023-03-30T08:48:37.471Z,7.82
2023-03-30T08:51:18.960Z,7.82
2023-03-30T08:53:45.815Z,7.25
2023-03-30T08:56:21.906Z,7.53
2023-03-30T08:59:10.430Z,7.45
2023-03-30T09:02:22.087Z,7.22
2023-03-30T09:05:02.107Z,6.75
2023-03-30T09:07:50.294Z,6.70
2023-03-30T09:10:19.851Z,7.22
2023-03-30T09:12:50.975Z,7.57
2023-03-30T09:15:20.412Z,7.28
2023-03-30T09:18:10.847Z,7.25
2023-03-30T09:20:41.362Z,7.30
2023-03-30T09:23:18.677Z,7.05
2023-03-30T09:25:49.360Z,6.68
2023-03-30T09:28:26.514Z,7.55
2023-03-30T09:31:00.663Z,7.20
2023-03-30T09:34:04.467Z,7.10
2023-03-30T09:36:51.746Z,7.53
2023-03-30T09:39:24.275Z,7.55
2023-03-30T09:42:12.878Z,8.10
2023-03-30T09:44:56.195Z,8.02
2023-03-30T09:50:04.791Z,7.10
2023-03-30T09:52:37.222Z,7.70
2023-03-30T09:55:22.480Z,7.90
2023-03-30T09:57:51.125Z,7.90
2023-03-30T10:00:32.768Z,8.15
2023-03-30T10:03:02.933Z,8.00
2023-03-30T10:05:31.585Z,8.48
2023-03-30T10:08:01.486Z,8.05
2023-03-30T10:10:34.074Z,7.43
2023-03-30T10:13:13.495Z,7.80
2023-03-30T10:15:44.418Z,7.88
2023-03-30T10:18:37.434Z,7.82
2023-03-30T10:21:05.703Z,9.13
2023-03-30T10:23:40.259Z,8.07
2023-03-30T10:26:16.058Z,8.02
2023-03-30T10:28:54.224Z,8.52
2023-03-30T10:31:23.860Z,8.35
2023-03-30T10:34:00.135Z,8.13
2023-03-30T10:36:32.780Z,8.65
2023-03-30T10:39:14.271Z,8.43
2023-03-30T10:41:42.600Z,7.97
2023-03-30T10:44:19.019Z,8.55
2023-03-30T10:46:46.722Z,8.68
2023-03-30T10:49:41.114Z,8.60
2023-03-30T10:52:17.416Z,9.23
2023-03-30T10:54:57.371Z,9.02
2023-03-30T10:57:52.241Z,9.65
2023-03-30T11:00:32.944Z,9.30
2023-03-30T11:03:15.886Z,10.63
2023-03-30T11:05:51.419Z,10.98
2023-03-30T11:08:34.980Z,9.82
2023-03-30T11:13:40.136Z,10.25
2023-03-30T11:16:22.000Z,9.77
2023-03-30T11:19:09.392Z,9.77
2023-03-30T11:22:00.525Z,9.57
2023-03-30T11:24:28.821Z,9.95
2023-03-30T11:27:05.386Z,10.02
2023-03-30T11:29:49.775Z,9.88
2023-03-30T11:32:16.716Z,9.70
2023-03-30T11:35:05.496Z,10.65
2023-03-30T11:38:01.810Z,10.07
2023-03-30T11:40:44.499Z,9.98
2023-03-30T11:43:13.376Z,11.20
2023-03-30T11:46:04.220Z,10.23
2023-03-30T11:48:46.862Z,9.52
2023-03-30T11:51:22.321Z,9.52
2023-03-30T11:53:54.516Z,10.00
2023-03-30T11:56:47.060Z,10.88
2023-03-30T11:59:30.672Z,10.23
2023-03-30T12:02:21.919Z,9.63
2023-03-30T12:04:56.880Z,10.73
2023-03-30T12:07:57.707Z,9.95
2023-03-30T12:10:27.157Z,10.07
2023-03-30T12:12:55.926Z,11.18
2023-03-30T12:15:53.879Z,9.82
2023-03-30T12:18:42.470Z,10.07
2023-03-30T12:21:31.083Z,10.50
2023-03-30T12:24:17.022Z,10.10
2023-03-30T12:26:51.790Z,10.60
2023-03-30T12:32:29.257Z,10.23
2023-03-30T12:34:57.913Z,10.68
2023-03-30T12:37:33.542Z,9.85
2023-03-30T12:40:07.617Z,10.40
2023-03-30T12:42:39.701Z,10.98
2023-03-30T12:45:13.984Z,10.68
2023-03-30T12:48:10.124Z,10.55
2023-03-30T12:51:07.231Z,10.75
2023-03-30T12:53:55.357Z,11.07
2023-03-30T12:56:31.483Z,10.35
2023-03-30T12:59:27.150Z,9.95
2023-03-30T13:01:59.416Z,10.73
2023-03-30T13:04:32.683Z,10.80
2023-03-30T13:07:04.108Z,10.60
2023-03-30T13:09:55.935Z,10.20
2023-03-30T13:12:39.631Z,10.32
2023-03-30T13:15:31.702Z,10.23
2023-03-30T13:18:02.935Z,9.82
2023-03-30T13:20:57.225Z,9.35
2023-03-30T13:23:27.138Z,9.88
2023-03-30T13:26:21.884Z,10.00
2023-03-30T13:29:11.464Z,9.60
2023-03-30T13:31:47.637Z,9.90
2023-03-30T13:34:19.230Z,9.18
2023-03-30T13:37:01.056Z,9.45
2023-03-30T13:39:31.130Z,9.50
2023-03-30T13:42:20.757Z,10.02
2023-03-30T13:45:05.567Z,8.38
2023-03-30T13:47:50.671Z,9.35
2023-03-30T13:50:31.238Z,9.18
2023-03-30T13:53:10.768Z,9.02
2023-03-30T13:55:44.228Z,8.68
2023-03-30T13:58:23.120Z,9.75
2023-03-30T14:00:53.980Z,8.75
2023-03-30T14:03:38.192Z,8.35
2023-03-30T14:06:14.289Z,8.38
2023-03-30T14:08:45.096Z,7.80
2023-03-30T14:11:36.060Z,7.97
2023-03-30T14:14:04.628Z,7.85
2023-03-30T14:16:40.607Z,7.28
2023-03-30T14:19:26.170Z,6.90
2023-03-30T14:22:01.951Z,8.15
2023-03-30T14:24:37.956Z,7.25
2023-03-30T14:27:15.827Z,7.00
2023-03-30T14:29:47.658Z,6.80
2023-03-30T14:32:21.327Z,6.68
2023-03-30T14:34:52.421Z,7.80
2023-03-30T14:37:21.524Z,7.00
2023-03-30T14:39:53.036Z,7.53
2023-03-30T14:42:27.802Z,7.72
2023-03-30T14:44:57.134Z,8.45
2023-03-30T14:47:26.763Z,7.68
2023-03-30T14:49:57.599Z,11.23
2023-03-30T14:52:33.937Z,11.90
2023-03-30T14:55:06.011Z,11.43
2023-03-30T14:57:38.810Z,13.35
2023-03-30T15:00:18.708Z,13.20
2023-03-30T15:02:48.939Z,13.88
2023-03-30T15:05:18.436Z,14.00
2023-03-30T15:08:30.559Z,14.50
2023-03-30T15:11:01.154Z,14.10
2023-03-30T15:13:38.106Z,14.00
2023-03-30T15:16:06.133Z,14.85
2023-03-30T15:18:35.095Z,13.98
2023-03-30T15:21:02.412Z,14.75
2023-03-30T15:23:38.212Z,13.68
2023-03-30T15:26:07.184Z,13.98
2023-03-30T15:28:43.293Z,15.43
2023-03-30T15:31:13.533Z,15.35
2023-03-30T15:33:46.773Z,16.40
2023-03-30T15:36:17.435Z,16.13
2023-03-30T15:38:51.710Z,16.08
2023-03-30T15:41:22.368Z,15.90
2023-03-30T15:44:11.964Z,14.52
2023-03-30T15:46:40.301Z,14.77
2023-03-30T15:49:09.655Z,15.30
2023-03-30T15:51:42.431Z,15.57
2023-03-30T15:54:16.786Z,14.52
2023-03-30T15:56:54.836Z,14.43
2023-03-30T15:59:31.335Z,16.77
2023-03-30T16:02:03.809Z,16.08
2023-03-30T16:04:32.301Z,15.95
2023-03-30T16:06:59.133Z,16.98
2023-03-30T16:09:25.936Z,16.15
2023-03-30T16:11:52.840Z,16.42
2023-03-30T16:14:21.147Z,16.98
2023-03-30T16:16:48.562Z,16.50
2023-03-30T16:19:19.733Z,16.67
2023-03-30T16:21:46.745Z,16.52
2023-03-30T16:24:13.587Z,16.92
2023-03-30T16:26:40.604Z,18.90
2023-03-30T16:29:22.036Z,18.08
2023-03-30T16:31:50.728Z,18.77
2023-03-30T16:34:18.224Z,18.92
2023-03-30T16:36:45.652Z,21.10
2023-03-30T16:39:18.476Z,20.05
2023-03-30T16:41:45.756Z,21.75
2023-03-30T16:44:12.686Z,21.42
2023-03-30T16:46:42.038Z,21.63
2023-03-30T16:49:15.285Z,21.10
2023-03-30T16:51:42.116Z,20.48
2023-03-30T16:54:19.517Z,21.08
2023-03-30T16:56:54.477Z,20.50
2023-03-30T16:59:25.581Z,21.15
2023-03-30T17:07:01.477Z,20.20
2023-03-30T17:09:28.458Z,20.02
2023-03-30T17:11:55.276Z,18.98
2023-03-30T17:14:23.398Z,21.30
2023-03-30T17:16:50.704Z,19.98
2023-03-30T17:19:17.588Z,19.20
2023-03-30T17:21:46.034Z,18.80
2023-03-30T17:24:15.268Z,18.50
2023-03-30T17:26:42.609Z,20.33
2023-03-30T17:29:10.542Z,20.02
2023-03-30T17:31:38.417Z,19.70
2023-03-30T17:34:06.772Z,20.98
2023-03-30T17:36:33.658Z,19.23
2023-03-30T17:39:04.704Z,19.90
2023-03-30T17:41:33.792Z,20.25
2023-03-30T17:44:00.841Z,20.52
2023-03-30T17:46:28.337Z,20.55
2023-03-30T17:48:55.333Z,18.88
2023-03-30T17:51:22.236Z,20.80
2023-03-30T17:53:49.222Z,20.88
2023-03-30T17:56:15.983Z,19.10
2023-03-30T17:58:42.779Z,20.17
2023-03-30T18:01:12.528Z,22.20
2023-03-30T18:03:39.726Z,21.65
2023-03-30T18:06:07.094Z,22.88
2023-03-30T18:08:34.301Z,22.92
2023-03-30T18:11:05.064Z,24.80
2023-03-30T18:13:32.414Z,22.08
2023-03-30T18:16:06.724Z,23.42
2023-03-30T18:18:39.253Z,22.60
2023-03-30T18:21:06.900Z,23.30
2023-03-30T18:23:34.724Z,23.00
2023-03-30T18:26:03.985Z,22.17
2023-03-30T18:28:31.687Z,20.63
2023-03-30T18:31:00.548Z,20.92
2023-03-30T18:33:27.705Z,21.13
2023-03-30T18:35:56.862Z,21.60
2023-03-30T18:38:25.846Z,19.85
2023-03-30T18:40:58.082Z,21.20
2023-03-30T18:43:26.737Z,19.97
2023-03-30T18:45:54.543Z,20.45
2023-03-30T18:48:22.118Z,21.27
2023-03-30T18:50:54.472Z,19.83
2023-03-30T18:53:24.020Z,21.17
2023-03-30T18:56:00.673Z,20.17
2023-03-30T18:58:30.541Z,20.15
2023-03-30T19:01:00.967Z,20.60
2023-03-30T19:03:30.212Z,19.75
2023-03-30T19:05:57.170Z,20.75
2023-03-30T19:08:26.094Z,20.05
2023-03-30T19:10:57.991Z,21.02
2023-03-30T19:13:26.698Z,19.40
2023-03-30T19:15:54.403Z,20.52
2023-03-30T19:18:21.740Z,22.50
2023-03-30T19:20:50.993Z,20.88
2023-03-30T19:23:19.152Z,23.15
2023-03-30T19:25:46.093Z,20.10
2023-03-30T19:28:13.291Z,20.35
2023-03-30T19:30:40.606Z,21.35
2023-03-30T19:33:11.108Z,21.05
2023-03-30T19:35:41.198Z,20.52
2023-03-30T19:38:08.370Z,21.33
2023-03-30T19:40:36.529Z,19.95
2023-03-30T19:43:03.503Z,20.75
2023-03-30T19:45:31.319Z,20.77
2023-03-30T19:47:58.129Z,23.33
2023-03-30T19:57:56.946Z,21.05
2023-03-30T20:00:24.606Z,22.85
2023-03-30T20:03:01.376Z,21.60
2023-03-30T20:06:13.405Z,21.92
2023-03-30T20:08:47.061Z,22.08
2023-03-30T20:11:16.617Z,22.15
2023-03-30T20:13:46.025Z,21.40
2023-03-30T20:16:31.549Z,21.07
2023-03-30T20:18:58.865Z,21.73
2023-03-30T20:21:29.233Z,21.42
2023-03-30T20:24:00.207Z,22.45
2023-03-30T20:26:30.591Z,21.23
2023-03-30T20:28:57.515Z,23.48
2023-03-30T20:31:44.640Z,22.45
2023-03-30T20:34:13.021Z,21.38
2023-03-30T20:36:40.555Z,22.13
2023-03-30T20:39:34.011Z,23.20
2023-03-30T20:42:08.389Z,21.10
2023-03-30T20:44:45.252Z,22.38
2023-03-30T20:47:20.036Z,20.92
2023-03-30T20:50:00.157Z,20.08
2023-03-30T20:52:30.166Z,20.50
2023-03-30T20:54:57.195Z,21.33
2023-03-30T20:57:24.858Z,21.52
2023-03-30T20:59:59.855Z,21.85
2023-03-30T21:02:34.799Z,23.30
2023-03-30T21:05:13.174Z,22.10
2023-03-30T21:10:53.718Z,23.30
2023-03-30T21:13:20.597Z,22.05
2023-03-30T21:15:51.754Z,22.00
2023-03-30T21:18:22.798Z,21.20
2023-03-30T21:20:49.674Z,22.95
2023-03-30T21:23:16.401Z,23.50
2023-03-30T21:25:44.301Z,22.17
2023-03-30T21:28:12.217Z,24.08
2023-03-30T21:30:39.425Z,23.30
2023-03-30T21:33:06.613Z,23.55
2023-03-30T21:35:33.543Z,22.83
2023-03-30T21:38:01.185Z,23.25
2023-03-30T21:40:29.586Z,22.83
2023-03-30T21:42:56.409Z,22.75
2023-03-30T21:45:24.626Z,22.42
2023-03-30T21:47:51.585Z,21.42
2023-03-30T21:50:18.464Z,22.35
2023-03-30T21:52:45.270Z,22.67
2023-03-30T21:55:12.030Z,22.90
2023-03-30T21:57:39.296Z,23.95
2023-03-30T22:00:10.138Z,22.45
2023-03-30T22:02:59.536Z,23.23
2023-03-30T22:05:27.114Z,25.25
2023-03-30T22:07:53.805Z,25.27
2023-03-30T22:10:20.539Z,24.13
2023-03-30T22:12:47.251Z,24.83
2023-03-30T22:15:14.051Z,23.50
2023-03-30T22:17:45.668Z,23.70
2023-03-30T22:20:13.057Z,23.00
2023-03-30T22:22:43.662Z,20.08
2023-03-30T22:25:10.781Z,17.50
2023-03-30T22:27:37.688Z,19.95
2023-03-30T22:30:06.006Z,18.10
2023-03-30T22:32:33.617Z,17.95
2023-03-30T22:35:00.442Z,18.58
2023-03-30T22:37:27.157Z,19.77
2023-03-30T22:39:53.883Z,21.08
2023-03-30T22:42:20.927Z,21.25
2023-03-30T22:44:47.947Z,20.58
2023-03-30T22:47:14.824Z,18.48
2023-03-30T22:49:44.436Z,14.43
2023-03-30T22:52:11.144Z,11.40
2023-03-30T22:54:37.891Z,10.35
2023-03-30T22:57:04.756Z,8.13
2023-03-30T22:59:31.599Z,5.55
2023-03-30T23:01:58.348Z,4.32
2023-03-30T23:04:25.311Z,2.75
2023-03-30T23:06:52.065Z,3.03
2023-03-30T23:09:21.692Z,2.88
2023-03-30T23:11:48.838Z,1.90
2023-03-30T23:14:15.741Z,2.50
2023-03-30T23:16:44.685Z,1.83
2023-03-30T23:19:12.180Z,1.90
2023-03-30T23:21:39.164Z,1.83
2023-03-30T23:24:09.972Z,2.00
2023-03-30T23:26:36.783Z,1.90
2023-03-30T23:29:03.853Z,2.05
2023-03-30T23:31:30.668Z,1.80
2023-03-30T23:33:57.770Z,1.83
2023-03-30T23:36:25.007Z,2.47
2023-03-30T23:38:51.992Z,1.98
2023-03-30T23:41:20.380Z,1.63
2023-03-30T23:43:48.003Z,1.98
2023-03-30T23:46:15.711Z,1.80
2023-03-30T23:48:42.639Z,1.73
2023-03-30T23:51:09.779Z,1.73
2023-03-30T23:53:40.389Z,1.60
2023-03-30T23:56:12.972Z,1.77
2023-03-30T23:58:41.652Z,1.92
